createdAt,value
2022-12-28T00:01:19.063Z,101221.25
2022-12-28T00:03:47.455Z,101212.78
2022-12-28T00:06:17.148Z,101205.09
2022-12-28T00:08:44.858Z,101204.09
2022-12-28T00:11:25.414Z,101196.47
2022-12-28T00:13:56.534Z,101201.47
2022-12-28T00:16:27.226Z,101192.03
2022-12-28T00:18:55.227Z,101187.00
2022-12-28T00:21:24.773Z,101182.81
2022-12-28T00:23:54.240Z,101170.09
2022-12-28T00:26:26.063Z,101170.19
2022-12-28T00:28:58.284Z,101158.28
2022-12-28T00:31:29.733Z,101160.06
2022-12-28T00:33:57.397Z,101150.69
2022-12-28T00:37:08.572Z,101137.84
2022-12-28T00:39:14.382Z,101128.53
2022-12-28T00:41:42.207Z,101126.03
2022-12-28T00:44:10.076Z,101122.66
2022-12-28T00:46:37.859Z,101121.78
2022-12-28T00:49:05.637Z,101120.94
2022-12-28T00:51:35.548Z,101112.38
2022-12-28T00:54:03.289Z,101114.09
2022-12-28T00:56:31.038Z,101109.81
2022-12-28T00:59:00.593Z,101094.38
2022-12-28T01:01:29.756Z,101089.22
2022-12-28T01:03:59.319Z,101082.38
2022-12-28T01:06:27.717Z,101084.94
2022-12-28T01:08:56.871Z,101085.78
2022-12-28T01:11:26.327Z,101074.63
2022-12-28T01:13:56.584Z,101075.50
2022-12-28T01:16:26.807Z,101074.66
2022-12-28T01:18:56.615Z,101060.13
2022-12-28T01:21:26.442Z,101047.28
2022-12-28T01:23:57.179Z,101051.56
2022-12-28T01:26:25.436Z,101047.25
2022-12-28T01:28:53.397Z,101037.03
2022-12-28T01:31:22.339Z,101028.47
2022-12-28T01:33:51.557Z,101019.94
2022-12-28T01:36:21.814Z,101013.97
2022-12-28T01:38:53.379Z,101014.84
2022-12-28T01:41:24.021Z,101010.53
2022-12-28T01:44:25.267Z,100991.72
2022-12-28T01:46:57.595Z,100995.13
2022-12-28T01:49:30.589Z,100983.16
2022-12-28T01:52:03.692Z,100985.72
2022-12-28T01:54:36.115Z,100983.97
2022-12-28T01:57:05.758Z,100983.97
2022-12-28T01:59:37.606Z,100992.50
2022-12-28T02:02:05.759Z,100974.56
2022-12-28T02:04:33.663Z,100974.56
2022-12-28T02:07:01.635Z,100985.72
2022-12-28T02:09:34.101Z,100997.72
2022-12-28T02:12:01.971Z,101017.38
2022-12-28T02:14:32.049Z,101004.56
2022-12-28T02:16:59.914Z,101000.28
2022-12-28T02:19:38.568Z,100989.16
2022-12-28T02:22:40.039Z,100989.13
2022-12-28T02:25:46.211Z,100982.28
2022-12-28T02:28:30.014Z,100983.16
2022-12-28T02:31:07.503Z,100990.00
2022-12-28T02:33:41.042Z,100992.56
2022-12-28T02:36:18.536Z,100986.56
2022-12-28T02:38:52.811Z,100978.88
2022-12-28T02:41:23.637Z,100977.16
2022-12-28T02:43:52.059Z,100970.31
2022-12-28T02:46:40.852Z,100972.88
2022-12-28T02:49:37.804Z,100960.91
2022-12-28T02:52:17.809Z,100960.06
2022-12-28T02:55:28.436Z,100953.19
2022-12-28T02:58:30.892Z,100957.47
2022-12-28T03:01:10.285Z,100954.03
2022-12-28T03:03:48.232Z,100954.91
2022-12-28T03:06:43.472Z,100941.19
2022-12-28T03:09:18.096Z,100941.16
2022-12-28T03:11:52.158Z,100942.84
2022-12-28T03:14:27.687Z,100936.84
2022-12-28T03:17:16.385Z,100929.16
2022-12-28T03:20:05.926Z,100924.84
2022-12-28T03:22:54.983Z,100918.81
2022-12-28T03:25:46.292Z,100911.91
2022-12-28T03:28:37.000Z,100903.31
2022-12-28T03:31:14.100Z,100904.03
2022-12-28T03:33:50.305Z,100899.75
2022-12-28T03:36:27.974Z,100892.78
2022-12-28T03:39:04.543Z,100884.16
2022-12-28T03:41:37.228Z,100884.19
2022-12-28T03:44:25.009Z,100867.88
2022-12-28T03:46:58.204Z,100869.56
2022-12-28T03:49:28.950Z,100858.31
2022-12-28T03:52:00.209Z,100852.31
2022-12-28T03:54:28.856Z,100851.38
2022-12-28T03:56:57.497Z,100841.06
2022-12-28T03:59:30.283Z,100845.28
2022-12-28T04:02:00.620Z,100834.97
2022-12-28T04:04:30.308Z,100835.88
2022-12-28T04:06:59.405Z,100827.13
2022-12-28T04:09:27.243Z,100826.44
2022-12-28T04:11:55.669Z,100817.84
2022-12-28T04:14:30.982Z,100820.34
2022-12-28T04:16:58.910Z,100811.72
2022-12-28T04:19:26.612Z,100825.44
2022-12-28T04:21:54.432Z,100820.22
2022-12-28T04:24:23.493Z,100819.25
2022-12-28T04:26:51.247Z,100824.44
2022-12-28T04:29:19.075Z,100826.16
2022-12-28T04:31:57.296Z,100820.97
2022-12-28T04:34:26.291Z,100820.13
2022-12-28T04:37:03.827Z,100814.03
2022-12-28T04:39:56.087Z,100804.47
2022-12-28T04:42:20.963Z,100811.25
2022-12-28T04:44:48.654Z,100806.25
2022-12-28T04:47:16.298Z,100805.38
2022-12-28T04:49:43.936Z,100803.72
2022-12-28T04:52:11.586Z,100797.59
2022-12-28T04:54:40.882Z,100801.81
2022-12-28T04:57:08.570Z,100809.63
2022-12-28T04:59:36.641Z,100810.25
2022-12-28T05:02:04.635Z,100811.28
2022-12-28T05:04:32.412Z,100811.88
2022-12-28T05:07:00.075Z,100808.56
2022-12-28T05:09:27.702Z,100806.91
2022-12-28T05:11:56.674Z,100808.72
2022-12-28T05:14:24.361Z,100809.31
2022-12-28T05:16:52.274Z,100802.41
2022-12-28T05:19:19.936Z,100793.72
2022-12-28T05:21:47.629Z,100787.72
2022-12-28T05:24:15.328Z,100786.97
2022-12-28T05:26:43.133Z,100780.97
2022-12-28T05:29:12.124Z,100775.75
2022-12-28T05:31:39.841Z,100770.38
2022-12-28T05:34:07.543Z,100763.47
2022-12-28T05:36:37.851Z,100765.94
2022-12-28T05:39:05.863Z,100760.25
2022-12-28T05:41:33.467Z,100750.81
2022-12-28T05:44:01.245Z,100749.50
2022-12-28T05:46:32.312Z,100759.19
2022-12-28T05:49:00.494Z,100757.69
2022-12-28T05:51:30.173Z,100756.88
2022-12-28T05:53:59.546Z,100755.16
2022-12-28T05:56:29.253Z,100752.31
2022-12-28T05:58:59.628Z,100749.09
2022-12-28T06:01:31.276Z,100749.91
2022-12-28T06:04:01.028Z,100750.88
2022-12-28T06:06:29.516Z,100750.75
2022-12-28T06:08:57.763Z,100744.59
2022-12-28T06:11:27.576Z,100749.91
2022-12-28T06:13:56.175Z,100741.16
2022-12-28T06:16:26.115Z,100744.53
2022-12-28T06:18:55.720Z,100742.16
2022-12-28T06:21:25.705Z,100737.75
2022-12-28T06:23:53.451Z,100742.16
2022-12-28T06:26:22.699Z,100741.25
2022-12-28T06:28:51.322Z,100733.38
2022-12-28T06:31:21.056Z,100735.19
2022-12-28T06:33:49.980Z,100720.44
2022-12-28T06:36:20.974Z,100723.09
2022-12-28T06:38:49.413Z,100726.59
2022-12-28T06:41:18.609Z,100729.34
2022-12-28T06:43:47.647Z,100733.63
2022-12-28T06:46:16.492Z,100728.13
2022-12-28T06:48:44.650Z,100729.28
2022-12-28T06:51:15.506Z,100727.63
2022-12-28T06:53:45.964Z,100725.78
2022-12-28T06:56:16.193Z,100724.13
2022-12-28T06:58:45.347Z,100724.13
2022-12-28T07:01:15.577Z,100720.63
2022-12-28T07:03:44.433Z,100717.25
2022-12-28T07:06:13.182Z,100717.03
2022-12-28T07:08:41.368Z,100714.38
2022-12-28T07:11:12.872Z,100717.56
2022-12-28T07:13:41.284Z,100713.41
2022-12-28T07:16:12.185Z,100718.50
2022-12-28T07:18:39.951Z,100711.69
2022-12-28T07:21:09.854Z,100714.19
2022-12-28T07:23:37.645Z,100709.81
2022-12-28T07:26:07.401Z,100707.78
2022-12-28T07:28:38.245Z,100698.50
2022-12-28T07:31:08.223Z,100683.81
2022-12-28T07:33:37.465Z,100690.00
2022-12-28T07:36:07.387Z,100678.25
2022-12-28T07:38:35.606Z,100685.63
2022-12-28T07:41:04.036Z,100686.47
2022-12-28T07:43:31.870Z,100692.56
2022-12-28T07:46:06.291Z,100695.16
2022-12-28T07:48:35.440Z,100687.47
2022-12-28T07:51:08.593Z,100679.97
2022-12-28T07:53:36.272Z,100684.75
2022-12-28T07:56:04.724Z,100675.22
2022-12-28T07:58:32.747Z,100674.41
2022-12-28T08:01:11.690Z,100672.66
2022-12-28T08:03:41.231Z,100667.47
2022-12-28T08:06:12.179Z,100656.00
2022-12-28T08:08:41.477Z,100650.78
2022-12-28T08:11:12.083Z,100653.34
2022-12-28T08:13:43.826Z,100654.59
2022-12-28T08:16:14.389Z,100653.59
2022-12-28T08:18:43.166Z,100653.19
2022-12-28T08:21:13.891Z,100661.78
2022-12-28T08:23:41.721Z,100658.34
2022-12-28T08:26:12.847Z,100659.00
2022-12-28T08:28:41.618Z,100662.44
2022-12-28T08:31:11.917Z,100652.81
2022-12-28T08:33:41.675Z,100666.50
2022-12-28T08:36:10.245Z,100657.34
2022-12-28T08:38:39.433Z,100664.28
2022-12-28T08:41:09.124Z,100664.28
2022-12-28T08:43:36.811Z,100661.72
2022-12-28T08:46:07.287Z,100657.41
2022-12-28T08:48:36.120Z,100655.94
2022-12-28T08:51:09.860Z,100650.59
2022-12-28T08:53:38.715Z,100651.72
2022-12-28T08:56:10.349Z,100659.66
2022-12-28T08:58:38.586Z,100652.03
2022-12-28T09:01:08.061Z,100653.66
2022-12-28T09:03:37.912Z,100652.63
2022-12-28T09:06:09.390Z,100645.63
2022-12-28T09:08:37.232Z,100641.31
2022-12-28T09:11:08.177Z,100644.44
2022-12-28T09:13:36.833Z,100647.88
2022-12-28T09:16:07.362Z,100641.13
2022-12-28T09:18:35.718Z,100636.38
2022-12-28T09:21:08.658Z,100644.94
2022-12-28T09:23:37.421Z,100637.06
2022-12-28T09:26:08.757Z,100633.72
2022-12-28T09:28:36.690Z,100633.38
2022-12-28T09:31:05.098Z,100628.19
2022-12-28T09:34:33.616Z,100626.00
2022-12-28T09:36:41.540Z,100618.44
2022-12-28T09:39:12.415Z,100616.63
2022-12-28T09:41:45.690Z,100618.63
2022-12-28T09:44:44.815Z,100620.09
2022-12-28T09:47:20.052Z,100612.97
2022-12-28T09:49:58.143Z,100618.41
2022-12-28T09:52:32.469Z,100610.59
2022-12-28T09:55:08.063Z,100621.22
2022-12-28T09:57:40.037Z,100613.63
2022-12-28T10:00:15.881Z,100602.84
2022-12-28T10:02:49.435Z,100606.19
2022-12-28T10:05:17.761Z,100610.06
2022-12-28T10:07:46.951Z,100606.88
2022-12-28T10:10:18.057Z,100613.44
2022-12-28T10:12:46.927Z,100610.44
2022-12-28T10:15:15.981Z,100597.72
2022-12-28T10:17:44.758Z,100591.69
2022-12-28T10:20:17.848Z,100590.50
2022-12-28T10:22:50.503Z,100599.84
2022-12-28T10:25:20.897Z,100584.34
2022-12-28T10:27:48.720Z,100572.16
2022-12-28T10:30:19.698Z,100576.38
2022-12-28T10:32:56.697Z,100569.50
2022-12-28T10:35:34.063Z,100576.56
2022-12-28T10:38:07.353Z,100567.56
2022-12-28T10:40:39.656Z,100579.69
2022-12-28T10:43:11.120Z,100571.19
2022-12-28T10:45:42.469Z,100565.38
2022-12-28T10:48:16.542Z,100561.06
2022-12-28T10:50:51.395Z,100557.38
2022-12-28T10:53:25.440Z,100552.91
2022-12-28T10:56:02.951Z,100550.38
2022-12-28T10:58:33.794Z,100540.03
2022-12-28T11:01:04.574Z,100526.50
2022-12-28T11:03:38.385Z,100520.81
2022-12-28T11:06:21.285Z,100512.25
2022-12-28T11:09:17.193Z,100515.81
2022-12-28T11:11:46.978Z,100512.50
2022-12-28T11:14:24.929Z,100523.66
2022-12-28T11:16:53.301Z,100514.50
2022-12-28T11:19:21.639Z,100508.53
2022-12-28T11:21:50.087Z,100505.50
2022-12-28T11:24:20.083Z,100513.88
2022-12-28T11:26:51.014Z,100503.78
2022-12-28T11:29:20.403Z,100497.22
2022-12-28T11:31:52.531Z,100492.94
2022-12-28T11:34:24.549Z,100485.13
2022-12-28T11:36:53.136Z,100484.41
2022-12-28T11:39:47.756Z,100473.50
2022-12-28T11:42:55.091Z,100479.38
2022-12-28T11:45:52.358Z,100485.53
2022-12-28T11:48:39.540Z,100473.69
2022-12-28T11:51:17.820Z,100478.13
2022-12-28T11:53:54.714Z,100483.50
2022-12-28T11:56:25.611Z,100486.09
2022-12-28T11:59:07.452Z,100478.19
2022-12-28T12:01:43.632Z,100459.97
2022-12-28T12:04:40.135Z,100457.44
2022-12-28T12:07:31.538Z,100454.03
2022-12-28T12:10:33.636Z,100449.19
2022-12-28T12:13:24.446Z,100441.19
2022-12-28T12:15:57.712Z,100426.50
2022-12-28T12:18:27.871Z,100429.63
2022-12-28T12:21:01.741Z,100429.59
2022-12-28T12:23:39.308Z,100414.50
2022-12-28T12:26:27.603Z,100408.13
2022-12-28T12:28:59.968Z,100410.09
2022-12-28T12:31:32.458Z,100403.38
2022-12-28T12:34:06.987Z,100400.91
2022-12-28T12:36:58.164Z,100400.56
2022-12-28T12:39:40.797Z,100390.19
2022-12-28T12:42:18.887Z,100379.03
2022-12-28T12:44:53.714Z,100376.06
2022-12-28T12:47:42.270Z,100372.00
2022-12-28T12:50:26.643Z,100372.75
2022-12-28T12:53:00.919Z,100370.59
2022-12-28T12:55:41.432Z,100362.84
2022-12-28T12:58:19.215Z,100358.00
2022-12-28T13:00:59.156Z,100357.00
2022-12-28T13:03:39.429Z,100357.06
2022-12-28T13:06:08.266Z,100355.81
2022-12-28T13:08:41.912Z,100352.34
2022-12-28T13:11:10.808Z,100340.78
2022-12-28T13:13:41.198Z,100347.91
2022-12-28T13:16:11.907Z,100347.19
2022-12-28T13:18:45.522Z,100340.34
2022-12-28T13:21:20.243Z,100336.34
2022-12-28T13:23:48.169Z,100334.84
2022-12-28T13:26:16.785Z,100333.88
2022-12-28T13:28:51.136Z,100323.22
2022-12-28T13:31:21.715Z,100316.94
2022-12-28T13:33:58.924Z,100317.91
2022-12-28T13:36:27.392Z,100318.44
2022-12-28T13:39:05.394Z,100300.31
2022-12-28T13:41:36.122Z,100306.78
2022-12-28T13:44:20.547Z,100298.16
2022-12-28T13:46:54.713Z,100303.41
2022-12-28T13:49:26.222Z,100304.59
2022-12-28T13:51:54.039Z,100293.25
2022-12-28T13:54:24.980Z,100293.25
2022-12-28T13:57:14.429Z,100291.22
2022-12-28T13:59:43.340Z,100289.88
2022-12-28T14:02:16.866Z,100279.22
2022-12-28T14:04:54.233Z,100278.41
2022-12-28T14:07:25.691Z,100272.16
2022-12-28T14:09:54.832Z,100268.00
2022-12-28T14:12:23.234Z,100267.41
2022-12-28T14:14:52.360Z,100260.28
2022-12-28T14:17:21.567Z,100257.44
2022-12-28T14:19:51.551Z,100257.41
2022-12-28T14:22:30.459Z,100251.81
2022-12-28T14:25:03.628Z,100246.09
2022-12-28T14:27:35.059Z,100245.50
2022-12-28T14:30:06.753Z,100242.16
2022-12-28T14:35:28.059Z,100235.88
2022-12-28T14:37:59.490Z,100231.41
2022-12-28T14:40:31.354Z,100227.03
2022-12-28T14:43:03.341Z,100233.06
2022-12-28T14:46:06.964Z,100234.06
2022-12-28T14:48:36.959Z,100220.16
2022-12-28T14:51:24.216Z,100221.00
2022-12-28T14:54:16.027Z,100217.66
2022-12-28T14:56:45.727Z,100216.63
2022-12-28T14:59:22.218Z,100212.91
2022-12-28T15:00:15.928Z,100235.97
2022-12-28T15:01:50.032Z,100220.31
2022-12-28T15:04:37.668Z,100218.88
2022-12-28T15:07:10.107Z,100218.94
2022-12-28T15:09:38.146Z,100218.25
2022-12-28T15:12:12.986Z,100218.03
2022-12-28T15:14:40.882Z,100218.63
2022-12-28T15:17:09.395Z,100212.53
2022-12-28T15:19:38.028Z,100204.81
2022-12-28T15:22:07.237Z,100209.94
2022-12-28T15:24:35.305Z,100217.53
2022-12-28T15:27:03.250Z,100210.09
2022-12-28T15:32:18.980Z,100209.75
2022-12-28T15:34:46.626Z,100203.16
2022-12-28T15:37:15.658Z,100202.13
2022-12-28T15:39:43.492Z,100193.81
2022-12-28T15:42:11.189Z,100198.22
2022-12-28T15:44:38.947Z,100187.44
2022-12-28T15:47:07.068Z,100185.66
2022-12-28T15:49:34.877Z,100177.16
2022-12-28T15:52:02.718Z,100181.19
2022-12-28T15:54:31.839Z,100175.66
2022-12-28T15:56:59.463Z,100166.69
2022-12-28T15:59:27.980Z,100159.84
2022-12-28T16:01:55.871Z,100153.41
2022-12-28T16:04:23.788Z,100149.13
2022-12-28T16:06:51.501Z,100148.88
2022-12-28T16:09:22.056Z,100149.03
2022-12-28T16:11:55.117Z,100145.00
2022-12-28T16:14:23.512Z,100154.09
2022-12-28T16:16:51.256Z,100149.75
2022-12-28T16:19:19.136Z,100161.19
2022-12-28T16:21:47.082Z,100154.34
2022-12-28T16:24:14.929Z,100156.94
2022-12-28T16:26:42.742Z,100156.94
2022-12-28T16:29:11.949Z,100151.50
2022-12-28T16:31:41.106Z,100141.91
2022-12-28T16:34:11.902Z,100145.03
2022-12-28T16:36:39.938Z,100149.91
2022-12-28T16:39:09.507Z,100149.16
2022-12-28T16:41:37.654Z,100144.66
2022-12-28T16:44:07.688Z,100146.47
2022-12-28T16:46:36.801Z,100149.06
2022-12-28T16:49:04.708Z,100149.38
2022-12-28T16:51:33.085Z,100155.34
2022-12-28T16:54:00.748Z,100147.50
2022-12-28T16:56:28.393Z,100152.59
2022-12-28T16:58:57.205Z,100151.97
2022-12-28T17:01:25.370Z,100156.72
2022-12-28T17:04:00.087Z,100152.97
2022-12-28T17:06:31.370Z,100149.06
2022-12-28T17:09:01.621Z,100144.91
2022-12-28T17:11:29.342Z,100136.59
2022-12-28T17:14:01.081Z,100135.59
2022-12-28T17:16:28.812Z,100135.47
2022-12-28T17:18:57.956Z,100130.44
2022-12-28T17:21:25.651Z,100125.19
2022-12-28T17:23:53.347Z,100124.81
2022-12-28T17:26:21.014Z,100119.19
2022-12-28T17:28:48.732Z,100115.75
2022-12-28T17:31:18.937Z,100111.03
2022-12-28T17:33:48.511Z,100118.19
2022-12-28T17:36:17.839Z,100116.44
2022-12-28T17:38:45.539Z,100113.34
2022-12-28T17:41:16.155Z,100108.25
2022-12-28T17:43:46.784Z,100115.16
2022-12-28T17:46:14.919Z,100108.44
2022-12-28T17:48:42.711Z,100098.16
2022-12-28T17:51:11.491Z,100090.38
2022-12-28T17:53:40.918Z,100086.94
2022-12-28T17:56:11.199Z,100086.28
2022-12-28T17:58:39.043Z,100083.91
2022-12-28T18:01:07.510Z,100081.09
2022-12-28T18:03:36.284Z,100074.59
2022-12-28T18:06:04.811Z,100069.50
2022-12-28T18:08:32.618Z,100058.25
2022-12-28T18:11:02.222Z,100060.72
2022-12-28T18:13:30.277Z,100056.88
2022-12-28T18:15:58.000Z,100047.25
2022-12-28T18:18:25.625Z,100036.13
2022-12-28T18:20:57.937Z,100033.19
2022-12-28T18:23:26.535Z,100022.75
2022-12-28T18:25:54.439Z,100027.47
2022-12-28T18:28:23.814Z,100025.22
2022-12-28T18:30:53.379Z,100019.09
2022-12-28T18:33:24.315Z,100015.22
2022-12-28T18:35:52.360Z,100013.00
2022-12-28T18:38:20.365Z,100003.91
2022-12-28T18:40:51.595Z,100005.34
2022-12-28T18:43:19.744Z,99998.91
2022-12-28T18:45:53.713Z,99992.56
2022-12-28T18:48:21.487Z,99991.16
2022-12-28T18:50:56.876Z,99996.44
2022-12-28T18:53:25.778Z,99998.00
2022-12-28T18:55:58.057Z,99995.47
2022-12-28T18:58:25.864Z,99988.13
2022-12-28T19:00:54.885Z,99988.84
2022-12-28T19:03:22.800Z,99984.84
2022-12-28T19:06:02.317Z,99976.28
2022-12-28T19:08:31.574Z,99972.97
2022-12-28T19:10:59.572Z,99976.25
2022-12-28T19:13:27.537Z,99958.03
2022-12-28T19:15:56.703Z,99966.44
2022-12-28T19:18:24.587Z,99954.53
2022-12-28T19:20:57.605Z,99958.50
2022-12-28T19:23:25.994Z,99949.72
2022-12-28T19:25:59.358Z,99950.41
2022-12-28T19:28:27.162Z,99947.72
2022-12-28T19:31:02.723Z,99942.09
2022-12-28T19:33:32.563Z,99945.38
2022-12-28T19:36:00.411Z,99940.69
2022-12-28T19:38:28.557Z,99936.91
2022-12-28T19:40:57.039Z,99933.66
2022-12-28T19:43:24.820Z,99923.28
2022-12-28T19:45:52.505Z,99927.06
2022-12-28T19:48:21.713Z,99916.41
2022-12-28T19:50:49.430Z,99919.81
2022-12-28T19:53:17.121Z,99916.69
2022-12-28T19:55:44.839Z,99920.97
2022-12-28T19:58:12.579Z,99915.09
2022-12-28T20:00:40.317Z,99909.28
2022-12-28T20:03:08.192Z,99898.78
2022-12-28T20:05:37.535Z,99898.16
2022-12-28T20:08:06.076Z,99898.34
2022-12-28T20:10:33.732Z,99903.25
2022-12-28T20:13:01.505Z,99890.59
2022-12-28T20:15:29.218Z,99878.44
2022-12-28T20:17:56.946Z,99887.38
2022-12-28T20:20:27.514Z,99872.28
2022-12-28T20:22:57.854Z,99872.22
2022-12-28T20:25:25.651Z,99871.88
2022-12-28T20:27:53.436Z,99868.59
2022-12-28T20:30:21.199Z,99864.44
2022-12-28T20:32:48.929Z,99865.47
2022-12-28T20:35:16.772Z,99862.28
2022-12-28T20:37:44.588Z,99870.53
2022-12-28T20:40:13.866Z,99860.28
2022-12-28T20:42:58.786Z,99857.69
2022-12-28T20:45:26.511Z,99860.63
2022-12-28T20:47:54.558Z,99856.00
2022-12-28T20:50:22.291Z,99852.84
2022-12-28T20:52:53.591Z,99844.41
2022-12-28T20:55:22.741Z,99855.69
2022-12-28T20:57:50.485Z,99842.63
2022-12-28T21:00:18.983Z,99844.00
2022-12-28T21:02:46.726Z,99840.72
2022-12-28T21:05:14.791Z,99857.75
2022-12-28T21:07:42.762Z,99840.28
2022-12-28T21:10:10.739Z,99851.22
2022-12-28T21:12:39.736Z,99845.97
2022-12-28T21:15:08.293Z,99856.06
2022-12-28T21:17:36.253Z,99850.94
2022-12-28T21:20:04.629Z,99839.78
2022-12-28T21:22:32.404Z,99844.78
2022-12-28T21:25:00.162Z,99850.66
2022-12-28T21:27:27.804Z,99852.63
2022-12-28T21:29:56.923Z,99860.41
2022-12-28T21:32:24.635Z,99857.38
2022-12-28T21:34:52.360Z,99858.53
2022-12-28T21:37:35.398Z,99846.41
2022-12-28T21:40:05.171Z,99836.81
2022-12-28T21:42:32.914Z,99830.13
2022-12-28T21:45:02.357Z,99824.53
2022-12-28T21:47:30.244Z,99825.47
2022-12-28T21:49:58.869Z,99823.16
2022-12-28T21:52:26.617Z,99830.94
2022-12-28T21:54:54.333Z,99828.31
2022-12-28T21:57:22.211Z,99823.38
2022-12-28T21:59:49.964Z,99821.09
2022-12-28T22:02:38.406Z,99818.34
2022-12-28T22:05:24.803Z,99831.44
2022-12-28T22:08:13.040Z,99829.72
2022-12-28T22:10:58.558Z,99816.22
2022-12-28T22:13:26.300Z,99822.94
2022-12-28T22:15:53.995Z,99814.06
2022-12-28T22:18:52.629Z,99815.72
2022-12-28T22:21:12.713Z,99815.81
2022-12-28T22:23:40.548Z,99806.09
2022-12-28T22:26:08.369Z,99825.94
2022-12-28T22:28:36.179Z,99817.28
2022-12-28T22:31:05.245Z,99822.81
2022-12-28T22:33:34.222Z,99811.78
2022-12-28T22:36:09.723Z,99813.34
2022-12-28T22:38:37.407Z,99801.09
2022-12-28T22:41:05.147Z,99809.59
2022-12-28T22:43:32.863Z,99799.97
2022-12-28T22:46:05.912Z,99804.03
2022-12-28T22:48:35.748Z,99792.25
2022-12-28T22:51:04.659Z,99797.81
2022-12-28T22:53:32.541Z,99790.09
2022-12-28T22:56:01.437Z,99798.66
2022-12-28T22:58:29.864Z,99796.13
2022-12-28T23:01:05.295Z,99784.09
2022-12-28T23:03:33.701Z,99780.25
2022-12-28T23:06:02.825Z,99791.63
2022-12-28T23:08:30.506Z,99784.91
2022-12-28T23:11:00.277Z,99779.03
2022-12-28T23:13:28.709Z,99789.66
2022-12-28T23:15:57.305Z,99786.72
2022-12-28T23:18:42.477Z,99792.13
2022-12-28T23:21:34.716Z,99782.50
2022-12-28T23:24:19.799Z,99781.81
2022-12-28T23:27:05.040Z,99775.84
2022-12-28T23:29:33.015Z,99767.06
2022-12-28T23:32:00.894Z,99770.94
2022-12-28T23:34:28.677Z,99764.91
2022-12-28T23:36:57.773Z,99756.09
2022-12-28T23:39:25.433Z,99750.13
2022-12-28T23:41:53.726Z,99749.47
2022-12-28T23:44:23.050Z,99751.97
2022-12-28T23:46:58.577Z,99746.72
2022-12-28T23:49:27.213Z,99741.00
2022-12-28T23:51:55.152Z,99746.44
2022-12-28T23:54:24.414Z,99753.88
2022-12-28T23:56:52.050Z,99745.03
2022-12-28T23:59:19.797Z,99732.13
